Time;durP1;ratioP1;P1;durP2;ratioP2;P2;SDS_P1;SDS_P2;PMS_P1;PMS_P2;Temp;Humidity;BMP_temperature;BMP_pressure;BME280_temperature;BME280_humidity;BME280_pressure;Samples;Min_cycle;Max_cycle;Signal;HPM_P1;HPM_P2
2023/10/23 00:01:40;;;;;;;;;;;;;;;15.03;100.00;99742.56;4996309;28;1210;-67
2023/10/23 00:04:07;;;;;;;;;;;;;;;15.13;100.00;99748.31;5013914;28;1955;-67
2023/10/23 00:06:34;;;;;;;;;;;;;;;15.16;100.00;99737.09;4996119;28;1296;-67
2023/10/23 00:09:00;;;;;;;;;;;;;;;15.16;100.00;99742.66;5014056;28;846;-67
2023/10/23 00:11:28;;;;;;;;;;;;;;;15.19;100.00;99738.22;5013753;28;871;-67
2023/10/23 00:13:54;;;;;;;;;;;;;;;15.21;100.00;99733.00;5013742;28;839;-67
2023/10/23 00:16:22;;;;;;;;;;;;;;;15.21;100.00;99725.44;5013632;28;804;-67
2023/10/23 00:18:49;;;;;;;;;;;;;;;15.15;100.00;99721.63;5013671;28;873;-67
2023/10/23 00:21:16;;;;;;;;;;;;;;;15.14;100.00;99720.03;5013922;28;928;-67
2023/10/23 00:23:42;;;;;;;;;;;;;;;15.18;100.00;99723.53;5013342;28;1902;-67
2023/10/23 00:26:09;;;;;;;;;;;;;;;15.20;100.00;99723.88;5013441;28;826;-67
2023/10/23 00:28:36;;;;;;;;;;;;;;;15.15;100.00;99724.41;5012721;28;869;-67
2023/10/23 00:31:03;;;;;;;;;;;;;;;15.01;100.00;99724.75;5013398;28;822;-67
2023/10/23 00:33:29;;;;;;;;;;;;;;;14.88;100.00;99722.66;5013298;28;878;-67
2023/10/23 00:35:56;;;;;;;;;;;;;;;14.82;100.00;99720.81;4995726;28;1385;-67
2023/10/23 00:38:23;;;;;;;;;;;;;;;14.73;100.00;99715.84;5013246;28;894;-67
2023/10/23 00:40:49;;;;;;;;;;;;;;;14.68;100.00;99716.38;5013356;28;811;-67
2023/10/23 00:43:19;;;;;;;;;;;;;;;14.70;100.00;99716.72;5013099;28;1886;-67
2023/10/23 00:45:50;;;;;;;;;;;;;;;14.79;100.00;99718.91;5013206;28;854;-67
2023/10/23 00:48:20;;;;;;;;;;;;;;;14.85;100.00;99717.16;5013489;28;818;-67
2023/10/23 00:50:49;;;;;;;;;;;;;;;15.09;100.00;99720.56;5013116;28;877;-67
2023/10/23 00:53:19;;;;;;;;;;;;;;;15.18;100.00;99715.16;5013107;28;866;-67
2023/10/23 00:55:46;;;;;;;;;;;;;;;15.24;100.00;99705.06;5013050;28;842;-67
2023/10/23 00:58:13;;;;;;;;;;;;;;;15.25;100.00;99714.97;5013022;28;887;-67
2023/10/23 01:00:40;;;;;;;;;;;;;;;15.13;100.00;99710.13;5012893;28;846;-67
2023/10/23 01:03:07;;;;;;;;;;;;;;;14.97;100.00;99713.69;5012981;28;886;-67
2023/10/23 01:05:34;;;;;;;;;;;;;;;14.97;100.00;99710.13;4994971;28;1953;-67
2023/10/23 01:08:01;;;;;;;;;;;;;;;15.01;100.00;99716.41;5012816;28;842;-67
2023/10/23 01:10:27;;;;;;;;;;;;;;;15.10;100.00;99717.34;5012701;28;811;-67
2023/10/23 01:12:54;;;;;;;;;;;;;;;15.27;100.00;99723.69;5012842;28;843;-67
2023/10/23 01:15:21;;;;;;;;;;;;;;;15.25;100.00;99720.53;5012651;28;875;-67
2023/10/23 01:17:50;;;;;;;;;;;;;;;15.09;100.00;99726.91;5012477;28;1129;-67
2023/10/23 01:20:17;;;;;;;;;;;;;;;15.03;100.00;99722.31;4994954;28;1020;-68
2023/10/23 01:22:44;;;;;;;;;;;;;;;15.35;100.00;99729.84;5012304;28;1242;-67
2023/10/23 01:25:14;;;;;;;;;;;;;;;15.46;100.00;99722.00;5012504;28;1942;-67
2023/10/23 01:27:41;;;;;;;;;;;;;;;15.51;100.00;99724.28;5012421;28;846;-67
2023/10/23 01:30:09;;;;;;;;;;;;;;;15.45;100.00;99728.03;5012387;28;963;-67
2023/10/23 01:32:35;;;;;;;;;;;;;;;15.46;100.00;99724.00;5012406;28;811;-67
2023/10/23 01:35:03;;;;;;;;;;;;;;;15.35;100.00;99715.94;5012217;28;882;-67
2023/10/23 01:37:30;;;;;;;;;;;;;;;15.15;100.00;99720.81;5012491;28;831;-67
2023/10/23 01:39:56;;;;;;;;;;;;;;;15.00;100.00;99720.38;5012253;28;882;-67
2023/10/23 01:42:28;;;;;;;;;;;;;;;14.96;100.00;99726.06;5012189;28;917;-67
2023/10/23 01:44:57;;;;;;;;;;;;;;;14.87;100.00;99737.78;5012393;28;1949;-68
2023/10/23 01:47:25;;;;;;;;;;;;;;;14.79;100.00;99730.06;5012268;28;1179;-67
2023/10/23 01:49:53;;;;;;;;;;;;;;;14.69;100.00;99729.06;5012348;28;954;-67
2023/10/23 01:52:19;;;;;;;;;;;;;;;14.59;100.00;99730.09;5012627;28;839;-67
2023/10/23 01:54:46;;;;;;;;;;;;;;;14.50;100.00;99730.66;5012278;28;826;-67
2023/10/23 01:57:13;;;;;;;;;;;;;;;14.42;100.00;99730.03;4994649;28;1284;-67
2023/10/23 01:59:39;;;;;;;;;;;;;;;14.41;100.00;99736.81;4994507;28;818;-67
2023/10/23 02:02:07;;;;;;;;;;;;;;;14.44;100.00;99732.38;4994609;28;1544;-68
2023/10/23 02:04:36;;;;;;;;;;;;;;;14.50;100.00;99741.78;5012225;28;1882;-68
2023/10/23 02:07:03;;;;;;;;;;;;;;;14.50;100.00;99739.00;5012292;28;835;-67
2023/10/23 02:09:30;;;;;;;;;;;;;;;14.48;100.00;99742.19;4994261;28;1303;-68
2023/10/23 02:11:57;;;;;;;;;;;;;;;14.39;100.00;99735.66;5012029;28;892;-67
2023/10/23 02:14:23;;;;;;;;;;;;;;;14.30;100.00;99739.03;5011973;28;843;-67
2023/10/23 02:16:50;;;;;;;;;;;;;;;14.20;100.00;99737.25;5012090;28;870;-67
2023/10/23 02:19:16;;;;;;;;;;;;;;;14.12;100.00;99744.16;5012185;28;819;-67
2023/10/23 02:21:49;;;;;;;;;;;;;;;14.04;100.00;99747.09;5012141;28;1133;-67
2023/10/23 02:24:16;;;;;;;;;;;;;;;13.94;100.00;99739.75;5011823;28;1910;-67
2023/10/23 02:26:43;;;;;;;;;;;;;;;13.96;100.00;99744.91;5011842;28;819;-67
2023/10/23 02:29:10;;;;;;;;;;;;;;;13.92;100.00;99747.72;5011877;28;803;-67
2023/10/23 02:31:38;;;;;;;;;;;;;;;13.85;100.00;99761.78;5011627;28;816;-67
2023/10/23 02:34:05;;;;;;;;;;;;;;;13.73;100.00;99748.50;5011727;28;890;-67
2023/10/23 02:36:32;;;;;;;;;;;;;;;13.55;100.00;99766.28;5011729;28;881;-67
2023/10/23 02:38:59;;;;;;;;;;;;;;;13.38;100.00;99767.38;5011716;28;867;-67
2023/10/23 02:41:28;;;;;;;;;;;;;;;13.21;100.00;99769.22;5011722;28;815;-67
2023/10/23 02:43:55;;;;;;;;;;;;;;;13.06;100.00;99772.19;5011622;28;834;-67
2023/10/23 02:46:22;;;;;;;;;;;;;;;12.94;100.00;99781.09;5011582;28;883;-67
2023/10/23 02:48:49;;;;;;;;;;;;;;;12.87;100.00;99779.22;5011820;28;791;-66
2023/10/23 02:51:15;;;;;;;;;;;;;;;12.81;100.00;99789.22;5012847;28;882;-66
2023/10/23 02:53:42;;;;;;;;;;;;;;;12.78;100.00;99784.50;5015176;28;1878;-67
2023/10/23 02:56:12;;;;;;;;;;;;;;;12.71;100.00;99784.59;5015292;28;842;-67
2023/10/23 02:58:39;;;;;;;;;;;;;;;12.59;100.00;99783.19;4997489;28;1206;-66
2023/10/23 03:01:23;;;;;;;;;;;;;;;12.49;100.00;99778.56;5015220;28;834;-66
2023/10/23 03:03:51;;;;;;;;;;;;;;;12.42;100.00;99773.91;5014930;28;862;-66
2023/10/23 03:06:17;;;;;;;;;;;;;;;12.38;100.00;99764.06;5015155;28;882;-66
2023/10/23 03:08:44;;;;;;;;;;;;;;;12.34;100.00;99766.09;5015239;28;835;-66
2023/10/23 03:11:11;;;;;;;;;;;;;;;12.39;100.00;99766.41;5014902;28;889;-66
2023/10/23 03:13:38;;;;;;;;;;;;;;;12.46;100.00;99765.53;5014848;28;1955;-66
2023/10/23 03:16:04;;;;;;;;;;;;;;;12.59;100.00;99765.78;5014789;28;910;-66
2023/10/23 03:18:31;;;;;;;;;;;;;;;12.61;100.00;99779.97;5014949;28;823;-66
2023/10/23 03:21:00;;;;;;;;;;;;;;;12.55;100.00;99778.91;5014985;28;900;-66
2023/10/23 03:23:30;;;;;;;;;;;;;;;12.46;100.00;99773.88;4993774;28;1420;-66
2023/10/23 03:25:57;;;;;;;;;;;;;;;12.44;100.00;99771.50;4995092;28;886;-66
2023/10/23 03:28:24;;;;;;;;;;;;;;;12.44;100.00;99771.50;4995073;28;803;-66
2023/10/23 03:30:51;;;;;;;;;;;;;;;12.39;100.00;99774.72;4995001;28;882;-66
2023/10/23 03:33:18;;;;;;;;;;;;;;;12.36;100.00;99770.00;4994949;28;850;-66
2023/10/23 03:35:45;;;;;;;;;;;;;;;12.35;100.00;99767.66;4994798;28;2002;-66
2023/10/23 03:38:12;;;;;;;;;;;;;;;12.32;100.00;99762.94;4994914;28;935;-66
2023/10/23 03:40:39;;;;;;;;;;;;;;;12.27;100.00;99766.97;4994808;28;815;-66
2023/10/23 03:43:05;;;;;;;;;;;;;;;12.24;100.00;99762.25;4994799;28;861;-66
2023/10/23 03:45:34;;;;;;;;;;;;;;;12.25;100.00;99761.06;4994727;28;833;-66
2023/10/23 03:48:01;;;;;;;;;;;;;;;12.29;100.00;99759.03;4994788;28;882;-67
2023/10/23 03:50:28;;;;;;;;;;;;;;;12.31;100.00;99759.41;4994672;28;870;-66
2023/10/23 03:52:54;;;;;;;;;;;;;;;12.28;100.00;99760.22;4994643;28;872;-67
2023/10/23 03:55:21;;;;;;;;;;;;;;;12.25;100.00;99761.06;4994664;28;1964;-66
2023/10/23 03:57:48;;;;;;;;;;;;;;;12.21;100.00;99755.56;4994488;28;842;-67
2023/10/23 04:00:15;;;;;;;;;;;;;;;12.21;100.00;99758.31;4994527;28;822;-67
2023/10/23 04:02:41;;;;;;;;;;;;;;;12.21;100.00;99757.53;4993130;28;858;-67
2023/10/23 04:05:08;;;;;;;;;;;;;;;12.18;100.00;99764.72;4994519;28;949;-67
2023/10/23 04:07:35;;;;;;;;;;;;;;;12.20;100.00;99772.59;4994303;28;830;-67
2023/10/23 04:10:01;;;;;;;;;;;;;;;12.30;100.00;99755.03;4994494;28;889;-68
2023/10/23 04:12:27;;;;;;;;;;;;;;;12.44;100.00;99756.84;4994208;28;866;-65
2023/10/23 04:14:53;;;;;;;;;;;;;;;12.52;100.00;99757.53;4994508;28;1961;-66
2023/10/23 04:17:20;;;;;;;;;;;;;;;12.55;100.00;99757.50;4994230;28;878;-66
2023/10/23 04:19:50;;;;;;;;;;;;;;;12.56;100.00;99756.28;4994052;28;924;-66
2023/10/23 04:22:17;;;;;;;;;;;;;;;12.66;100.00;99760.13;5000911;28;1235;-65
2023/10/23 04:24:43;;;;;;;;;;;;;;;12.77;100.00;99765.50;5013562;28;835;-66
2023/10/23 04:27:10;;;;;;;;;;;;;;;12.91;100.00;99762.53;5013577;28;850;-67
2023/10/23 04:29:36;;;;;;;;;;;;;;;13.03;100.00;99761.16;5013516;28;819;-66
2023/10/23 04:32:03;;;;;;;;;;;;;;;13.06;100.00;99758.31;5013415;28;1038;-66
2023/10/23 04:34:30;;;;;;;;;;;;;;;13.15;100.00;99757.78;5013315;28;1918;-67
2023/10/23 04:36:56;;;;;;;;;;;;;;;13.21;100.00;99758.09;5013341;28;917;-67
2023/10/23 04:39:23;;;;;;;;;;;;;;;13.23;100.00;99761.25;5013334;28;803;-66
2023/10/23 04:41:50;;;;;;;;;;;;;;;13.30;100.00;99763.16;5013325;28;843;-68
2023/10/23 04:44:16;;;;;;;;;;;;;;;13.35;100.00;99762.66;5013205;28;859;-66
2023/10/23 04:46:42;;;;;;;;;;;;;;;13.37;100.00;99771.34;5013242;28;818;-66
2023/10/23 04:49:09;;;;;;;;;;;;;;;13.41;100.00;99766.50;5013126;28;830;-66
2023/10/23 04:51:36;;;;;;;;;;;;;;;13.47;100.00;99773.94;5013084;28;823;-66
2023/10/23 04:54:03;;;;;;;;;;;;;;;13.57;100.00;99786.06;5013000;28;1956;-65
2023/10/23 04:56:30;;;;;;;;;;;;;;;13.71;100.00;99790.59;5013005;28;910;-66
2023/10/23 04:58:56;;;;;;;;;;;;;;;13.87;100.00;99789.91;5013049;28;811;-68
2023/10/23 05:01:24;;;;;;;;;;;;;;;14.06;100.00;99791.91;5012810;28;842;-67
2023/10/23 05:03:50;;;;;;;;;;;;;;;14.24;100.00;99790.78;5012907;28;863;-66
2023/10/23 05:06:17;;;;;;;;;;;;;;;14.43;100.00;99803.88;5012803;28;866;-66
2023/10/23 05:08:43;;;;;;;;;;;;;;;14.58;100.00;99798.84;4995322;28;1301;-67
2023/10/23 05:11:10;;;;;;;;;;;;;;;14.75;100.00;99802.47;5012760;28;870;-66
2023/10/23 05:13:36;;;;;;;;;;;;;;;14.90;100.00;99800.13;5012272;28;1960;-66
2023/10/23 05:16:06;;;;;;;;;;;;;;;14.99;100.00;99799.53;5012705;28;799;-67
2023/10/23 05:18:33;;;;;;;;;;;;;;;15.02;100.00;99809.78;5012589;28;819;-69
2023/10/23 05:21:10;;;;;;;;;;;;;;;15.02;100.00;99807.00;4995077;28;1041;-68
2023/10/23 05:23:37;;;;;;;;;;;;;;;15.01;100.00;99813.81;5012275;28;1368;-67
2023/10/23 05:26:04;;;;;;;;;;;;;;;15.07;100.00;99823.22;5012529;28;846;-66
2023/10/23 05:28:31;;;;;;;;;;;;;;;15.14;100.00;99827.84;4994729;28;1197;-67
2023/10/23 05:30:58;;;;;;;;;;;;;;;15.22;100.00;99834.81;5012381;28;791;-67
2023/10/23 05:33:25;;;;;;;;;;;;;;;15.30;100.00;99836.22;5012365;28;871;-67
2023/10/23 05:36:12;;;;;;;;;;;;;;;15.38;100.00;99834.78;5012277;28;1983;-67
2023/10/23 05:38:38;;;;;;;;;;;;;;;15.49;100.00;99837.31;5012426;28;874;-68
2023/10/23 05:41:09;;;;;;;;;;;;;;;15.56;100.00;99845.53;5012224;28;921;-70
2023/10/23 05:43:35;;;;;;;;;;;;;;;15.63;100.00;99845.34;5012311;28;834;-69
2023/10/23 05:46:05;;;;;;;;;;;;;;;15.66;100.00;99852.84;5012427;28;818;-69
2023/10/23 05:48:33;;;;;;;;;;;;;;;15.69;100.00;99854.72;5012203;28;860;-70
2023/10/23 05:51:00;;;;;;;;;;;;;;;15.76;100.00;99851.00;5012554;28;847;-69
2023/10/23 05:53:27;;;;;;;;;;;;;;;15.95;100.00;99856.91;5012303;28;1110;-69
2023/10/23 05:55:54;;;;;;;;;;;;;;;16.13;100.00;99857.25;4994575;28;1330;-69
2023/10/23 05:58:21;;;;;;;;;;;;;;;16.26;100.00;99855.28;5012209;28;1187;-69
2023/10/23 06:00:47;;;;;;;;;;;;;;;16.28;100.00;99864.00;5012044;28;1230;-69
2023/10/23 06:03:14;;;;;;;;;;;;;;;16.31;100.00;99863.09;5012090;28;1050;-69
2023/10/23 06:05:41;;;;;;;;;;;;;;;16.47;100.00;99859.50;5012042;28;815;-70
2023/10/23 06:08:09;;;;;;;;;;;;;;;16.70;100.00;99869.56;5011931;28;850;-69
2023/10/23 06:10:45;;;;;;;;;;;;;;;16.96;100.00;99861.28;5012060;28;894;-69
2023/10/23 06:13:12;;;;;;;;;;;;;;;17.21;100.00;99866.09;5012051;28;830;-70
2023/10/23 06:15:38;;;;;;;;;;;;;;;17.52;100.00;99865.53;4994379;28;1882;-70
2023/10/23 06:18:05;;;;;;;;;;;;;;;17.48;100.00;99850.91;5012136;28;886;-69
2023/10/23 06:20:32;;;;;;;;;;;;;;;17.53;100.00;99850.34;5012047;28;1441;-69
2023/10/23 06:22:59;;;;;;;;;;;;;;;17.46;100.00;99862.53;5011529;28;1270;-69
2023/10/23 06:25:26;;;;;;;;;;;;;;;17.48;100.00;99860.06;5011885;28;898;-69
2023/10/23 06:27:53;;;;;;;;;;;;;;;17.72;100.00;99860.47;5015596;28;922;-69
2023/10/23 06:30:20;;;;;;;;;;;;;;;18.23;100.00;99859.56;5016013;28;906;-68
2023/10/23 06:32:47;;;;;;;;;;;;;;;18.45;100.00;99867.97;5015751;28;827;-67
2023/10/23 06:35:14;;;;;;;;;;;;;;;18.32;100.00;99865.22;5015578;28;1979;-67
2023/10/23 06:37:40;;;;;;;;;;;;;;;18.42;100.00;99870.91;5015556;28;890;-66
2023/10/23 06:40:07;;;;;;;;;;;;;;;18.49;100.00;99865.81;5015777;28;866;-68
2023/10/23 06:45:43;;;;;;;;;;;;;;;18.84;100.00;99868.59;5013598;28;1119;-67
2023/10/23 06:48:10;;;;;;;;;;;;;;;19.23;100.00;99857.09;5015371;28;889;-67
2023/10/23 06:50:38;;;;;;;;;;;;;;;19.47;100.00;99860.13;4997857;28;887;-68
2023/10/23 06:53:04;;;;;;;;;;;;;;;19.71;100.00;99854.75;5015354;28;957;-67
2023/10/23 06:55:31;;;;;;;;;;;;;;;19.93;100.00;99849.81;4997527;28;1948;-66
2023/10/23 06:57:58;;;;;;;;;;;;;;;19.97;100.00;99849.66;5015152;28;862;-68
2023/10/23 07:00:25;;;;;;;;;;;;;;;19.88;100.00;99850.41;5015211;28;827;-67
2023/10/23 07:02:51;;;;;;;;;;;;;;;19.93;100.00;99851.84;4997365;28;1319;-70
2023/10/23 07:05:18;;;;;;;;;;;;;;;19.90;100.00;99850.75;5015138;28;804;-70
2023/10/23 07:07:44;;;;;;;;;;;;;;;19.78;100.00;99857.28;5014991;28;890;-70
2023/10/23 07:10:11;;;;;;;;;;;;;;;19.76;100.00;99854.94;5015036;28;785;-69
2023/10/23 07:12:37;;;;;;;;;;;;;;;19.91;100.00;99862.75;5014896;28;873;-69
2023/10/23 07:15:03;;;;;;;;;;;;;;;20.12;100.00;99861.84;5014872;28;1889;-69
2023/10/23 07:17:30;;;;;;;;;;;;;;;20.26;100.00;99852.00;5014847;28;803;-70
2023/10/23 07:19:57;;;;;;;;;;;;;;;20.34;100.00;99850.44;5014762;28;990;-71
2023/10/23 07:22:23;;;;;;;;;;;;;;;20.33;100.00;99853.72;5014528;28;1428;-69
2023/10/23 07:24:50;;;;;;;;;;;;;;;20.42;100.00;99855.72;5014848;28;834;-70
2023/10/23 07:27:16;;;;;;;;;;;;;;;20.60;100.00;99850.13;5014908;28;894;-69
2023/10/23 07:29:46;;;;;;;;;;;;;;;20.76;100.00;99851.81;5014995;28;799;-68
2023/10/23 07:32:13;;;;;;;;;;;;;;;21.17;100.00;99857.94;5014716;28;887;-69
2023/10/23 07:34:39;;;;;;;;;;;;;;;21.48;100.00;99845.63;5014387;28;1983;-72
2023/10/23 07:37:06;;;;;;;;;;;;;;;21.49;100.00;99838.78;5014298;28;821;-72
2023/10/23 07:39:32;;;;;;;;;;;;;;;21.24;100.00;99839.94;5014794;28;851;-71
2023/10/23 07:41:59;;;;;;;;;;;;;;;21.03;100.00;99839.72;5014490;28;874;-72
2023/10/23 07:44:26;;;;;;;;;;;;;;;21.00;100.00;99838.63;5014648;28;908;-73
2023/10/23 07:46:53;;;;;;;;;;;;;;;21.31;100.00;99837.56;5014610;28;795;-71
2023/10/23 07:49:19;;;;;;;;;;;;;;;21.75;100.00;99830.63;5014506;28;831;-73
2023/10/23 07:51:45;;;;;;;;;;;;;;;21.73;100.00;99830.34;5014516;28;815;-70
2023/10/23 07:54:12;;;;;;;;;;;;;;;22.27;100.00;99836.03;5014194;28;1980;-71
2023/10/23 07:56:45;;;;;;;;;;;;;;;22.20;100.00;99831.53;5014198;28;893;-70
2023/10/23 07:59:13;;;;;;;;;;;;;;;21.51;100.00;99837.03;5014075;28;831;-73
2023/10/23 08:01:40;;;;;;;;;;;;;;;21.03;100.00;99838.94;5013968;28;973;-73
2023/10/23 08:04:06;;;;;;;;;;;;;;;20.82;100.00;99840.72;5014196;28;850;-71
2023/10/23 08:06:33;;;;;;;;;;;;;;;21.13;100.00;99841.25;5013906;28;831;-71
2023/10/23 08:08:59;;;;;;;;;;;;;;;21.69;100.00;99838.16;5013928;28;867;-73
2023/10/23 08:11:27;;;;;;;;;;;;;;;22.17;100.00;99832.50;5013888;28;870;-71
2023/10/23 08:13:53;;;;;;;;;;;;;;;22.77;100.00;99827.72;5013864;28;1886;-70
2023/10/23 08:16:19;;;;;;;;;;;;;;;23.24;100.00;99823.13;5013831;28;811;-69
2023/10/23 08:18:46;;;;;;;;;;;;;;;23.63;100.00;99829.31;5013690;28;811;-72
2023/10/23 08:21:14;;;;;;;;;;;;;;;24.17;100.00;99826.13;5014122;28;1273;-71
2023/10/23 08:23:42;;;;;;;;;;;;;;;24.78;100.00;99827.28;5013521;28;1431;-75
2023/10/23 08:26:08;;;;;;;;;;;;;;;25.09;100.00;99834.19;5013562;28;947;-72
2023/10/23 08:28:35;;;;;;;;;;;;;;;25.15;100.00;99832.19;5013684;28;1015;-72
2023/10/23 08:31:02;;;;;;;;;;;;;;;25.00;100.00;99833.09;5013478;28;865;-75
2023/10/23 08:33:29;;;;;;;;;;;;;;;25.01;100.00;99831.84;5013528;28;890;-72
2023/10/23 08:35:56;;;;;;;;;;;;;;;25.12;100.00;99833.97;5013374;28;1910;-74
2023/10/23 08:38:22;;;;;;;;;;;;;;;25.24;100.00;99826.34;5013292;28;890;-71
2023/10/23 08:40:49;;;;;;;;;;;;;;;25.38;95.65;99827.50;5013509;28;893;-73
2023/10/23 08:43:15;;;;;;;;;;;;;;;24.97;96.79;99819.97;5013266;28;823;-72
2023/10/23 08:45:42;;;;;;;;;;;;;;;24.74;97.52;99827.50;5013277;28;874;-71
2023/10/23 08:48:09;;;;;;;;;;;;;;;24.72;97.55;99823.63;5013019;28;803;-71
2023/10/23 09:21:38;;;;;;;;;;;;;;;28.27;58.69;99795.84;5862569;23;1984;-59
2023/10/23 09:24:06;;;;;;;;;;;;;;;28.45;57.57;99791.63;4973623;28;859;-58
2023/10/23 09:26:31;;;;;;;;;;;;;;;28.44;55.97;99793.69;4973818;28;1165;-58
2023/10/23 09:28:58;;;;;;;;;;;;;;;28.46;55.28;99784.63;4973597;28;889;-58
2023/10/23 09:31:25;;;;;;;;;;;;;;;28.37;52.32;99784.94;4973518;28;858;-58
2023/10/23 09:33:51;;;;;;;;;;;;;;;28.43;51.59;99782.84;4973455;28;1918;-58
2023/10/23 09:36:26;;;;;;;;;;;;;;;28.75;46.58;99782.38;4973470;28;850;-58
2023/10/23 09:38:58;;;;;;;;;;;;;;;29.06;42.51;99784.66;4973551;28;823;-58
2023/10/23 09:41:25;;;;;;;;;;;;;;;29.19;42.06;99780.41;4973396;28;823;-58
2023/10/23 09:43:56;;;;;;;;;;;;;;;29.14;40.40;99782.00;4973474;28;846;-58
2023/10/23 09:46:24;;;;;;;;;;;;;;;28.79;40.91;99780.00;4973271;28;873;-58
2023/10/23 09:48:52;;;;;;;;;;;;;;;28.63;41.78;99773.91;4973564;28;803;-59
2023/10/23 09:51:19;;;;;;;;;;;;;;;28.84;40.79;99779.94;4973207;28;827;-58
2023/10/23 09:53:48;;;;;;;;;;;;;;;29.19;40.64;99771.88;4973177;28;1894;-58
2023/10/23 09:56:19;;;;;;;;;;;;;;;29.21;40.67;99767.22;4973282;28;858;-58
2023/10/23 09:58:47;;;;;;;;;;;;;;;28.86;41.09;99765.19;4973371;28;795;-58
2023/10/23 10:01:17;;;;;;;;;;;;;;;28.69;41.84;99762.50;4973241;28;871;-58
2023/10/23 10:03:45;;;;;;;;;;;;;;;29.07;40.36;99760.59;4973160;28;841;-58
2023/10/23 10:06:13;;;;;;;;;;;;;;;29.64;39.04;99760.00;4973507;28;878;-58
2023/10/23 10:08:43;;;;;;;;;;;;;;;30.15;37.92;99762.16;4973110;28;878;-58
2023/10/23 10:11:10;;;;;;;;;;;;;;;30.62;36.43;99750.28;4971852;28;1356;-58
2023/10/23 10:13:37;;;;;;;;;;;;;;;30.69;35.32;99746.81;4973028;28;879;-58
2023/10/23 10:16:04;;;;;;;;;;;;;;;30.90;34.85;99744.91;4973014;28;898;-58
2023/10/23 10:18:34;;;;;;;;;;;;;;;30.92;34.08;99744.38;4973082;28;819;-58
2023/10/23 10:21:05;;;;;;;;;;;;;;;30.70;34.22;99739.78;4972870;28;989;-58
2023/10/23 10:23:32;;;;;;;;;;;;;;;30.52;34.58;99736.44;4987911;28;1412;-58
2023/10/23 10:26:00;;;;;;;;;;;;;;;30.55;34.91;99728.88;4992313;28;825;-58
2023/10/23 10:28:27;;;;;;;;;;;;;;;30.51;34.96;99732.06;4992317;28;832;-58
2023/10/23 10:30:54;;;;;;;;;;;;;;;30.73;34.98;99722.34;4992432;28;919;-58
2023/10/23 10:33:22;;;;;;;;;;;;;;;30.93;34.65;99723.06;4992319;28;833;-58
2023/10/23 10:35:58;;;;;;;;;;;;;;;30.90;34.77;99724.16;4992171;28;1972;-58
2023/10/23 10:38:25;;;;;;;;;;;;;;;30.95;34.20;99714.72;4992281;28;805;-58
2023/10/23 10:40:55;;;;;;;;;;;;;;;30.90;34.00;99716.38;4992276;28;815;-58
2023/10/23 10:43:25;;;;;;;;;;;;;;;30.80;33.77;99714.47;4992144;28;870;-58
2023/10/23 10:45:53;;;;;;;;;;;;;;;30.89;33.65;99714.06;4992184;28;868;-58
2023/10/23 10:48:20;;;;;;;;;;;;;;;30.91;34.01;99705.72;4992018;28;886;-57
2023/10/23 10:50:48;;;;;;;;;;;;;;;30.86;33.59;99709.44;4992101;28;866;-57
2023/10/23 10:53:14;;;;;;;;;;;;;;;30.90;33.31;99704.19;4991986;28;850;-58
2023/10/23 10:55:42;;;;;;;;;;;;;;;30.92;32.98;99705.19;4992014;28;1886;-58
2023/10/23 10:58:10;;;;;;;;;;;;;;;31.08;33.20;99694.75;4992121;28;820;-58
2023/10/23 11:00:38;;;;;;;;;;;;;;;31.39;32.62;99705.81;4991999;28;882;-57
2023/10/23 11:03:05;;;;;;;;;;;;;;;31.35;32.92;99703.31;4992035;28;862;-58
2023/10/23 11:05:32;;;;;;;;;;;;;;;31.19;32.54;99707.25;4991973;28;927;-57
2023/10/23 11:07:59;;;;;;;;;;;;;;;31.18;32.98;99708.59;4991943;28;866;-57
2023/10/23 11:10:26;;;;;;;;;;;;;;;31.14;33.26;99697.50;4992056;28;862;-57
2023/10/23 11:12:52;;;;;;;;;;;;;;;31.13;33.18;99699.59;4993833;28;859;-58
2023/10/23 11:15:19;;;;;;;;;;;;;;;31.26;33.43;99692.31;4995372;28;2171;-58
2023/10/23 11:17:46;;;;;;;;;;;;;;;31.31;33.68;99692.22;4995492;28;815;-57
2023/10/23 11:20:13;;;;;;;;;;;;;;;31.26;33.37;99698.03;4995256;28;798;-58
2023/10/23 11:22:44;;;;;;;;;;;;;;;31.27;33.51;99697.50;4995261;28;1180;-57
2023/10/23 11:25:11;;;;;;;;;;;;;;;31.38;33.25;99693.63;4977932;28;834;-57
2023/10/23 11:27:38;;;;;;;;;;;;;;;31.50;33.18;99697.81;4995336;28;830;-58
2023/10/23 11:30:06;;;;;;;;;;;;;;;31.60;33.00;99700.19;4995441;28;826;-58
2023/10/23 11:32:32;;;;;;;;;;;;;;;31.71;32.58;99697.13;4977784;28;1357;-58
2023/10/23 11:35:02;;;;;;;;;;;;;;;31.59;32.20;99690.88;4994959;28;1967;-58
2023/10/23 11:37:31;;;;;;;;;;;;;;;31.65;32.01;99696.47;4995112;28;944;-58
2023/10/23 11:40:01;;;;;;;;;;;;;;;31.73;31.66;99695.25;4994984;28;870;-58
2023/10/23 11:42:28;;;;;;;;;;;;;;;31.72;31.39;99693.69;4994963;28;851;-58
2023/10/23 11:44:54;;;;;;;;;;;;;;;32.06;31.37;99686.47;4994931;28;924;-58
2023/10/23 11:47:20;;;;;;;;;;;;;;;32.41;30.16;99693.66;4994857;28;859;-58
2023/10/23 11:49:50;;;;;;;;;;;;;;;32.03;30.15;99699.78;4994733;28;870;-57
2023/10/23 11:52:16;;;;;;;;;;;;;;;32.01;30.42;99690.25;4994749;28;850;-58
2023/10/23 11:54:42;;;;;;;;;;;;;;;32.25;30.92;99694.84;4994652;28;1943;-58
2023/10/23 11:57:11;;;;;;;;;;;;;;;32.39;30.62;99682.03;4994652;28;861;-58
2023/10/23 11:59:40;;;;;;;;;;;;;;;32.45;30.19;99690.44;4994591;28;867;-58
2023/10/23 12:02:06;;;;;;;;;;;;;;;32.27;29.98;99689.34;4994608;28;874;-58
2023/10/23 12:04:35;;;;;;;;;;;;;;;32.17;29.73;99694.00;4976999;28;1185;-58
2023/10/23 12:07:04;;;;;;;;;;;;;;;32.15;29.88;99691.69;4994560;28;831;-58
2023/10/23 12:09:31;;;;;;;;;;;;;;;32.06;30.39;99697.91;4994426;28;878;-58
2023/10/23 12:11:57;;;;;;;;;;;;;;;32.08;29.77;99692.41;4976926;28;1364;-58
2023/10/23 12:14:24;;;;;;;;;;;;;;;32.32;29.65;99691.28;4994295;28;1944;-58
2023/10/23 12:16:50;;;;;;;;;;;;;;;32.37;30.21;99681.03;4994469;28;931;-58
2023/10/23 12:19:17;;;;;;;;;;;;;;;32.47;29.98;99690.66;4994140;28;890;-57
2023/10/23 12:21:43;;;;;;;;;;;;;;;32.33;30.17;99684.25;4994321;28;1199;-57
2023/10/23 12:24:09;;;;;;;;;;;;;;;31.98;30.31;99692.09;4993174;28;826;-57
2023/10/23 12:26:36;;;;;;;;;;;;;;;31.98;30.81;99685.59;4994114;28;846;-58
2023/10/23 12:29:05;;;;;;;;;;;;;;;31.95;30.10;99693.94;4994055;28;815;-57
2023/10/23 12:31:31;;;;;;;;;;;;;;;31.68;30.08;99693.25;4993973;28;815;-57
2023/10/23 12:33:58;;;;;;;;;;;;;;;31.30;31.27;99689.91;4993994;28;1918;-57
2023/10/23 12:36:24;;;;;;;;;;;;;;;30.96;31.11;99695.50;4993837;28;868;-57
2023/10/23 12:38:51;;;;;;;;;;;;;;;30.82;31.31;99691.88;4993905;28;799;-57
2023/10/23 12:41:18;;;;;;;;;;;;;;;30.69;31.92;99696.25;4993841;28;820;-56
2023/10/23 12:43:44;;;;;;;;;;;;;;;30.47;31.80;99700.25;4976265;28;879;-57
2023/10/23 12:46:11;;;;;;;;;;;;;;;30.62;31.83;99707.50;4993777;28;858;-57
2023/10/23 12:48:41;;;;;;;;;;;;;;;30.62;31.95;99699.75;4993545;28;878;-58
2023/10/23 12:51:07;;;;;;;;;;;;;;;30.66;32.16;99705.91;4993995;28;820;-58
2023/10/23 12:53:34;;;;;;;;;;;;;;;30.88;31.69;99698.28;4993565;28;831;-57
2023/10/23 12:56:00;;;;;;;;;;;;;;;30.96;31.16;99704.88;4993534;28;1882;-57
2023/10/23 12:58:27;;;;;;;;;;;;;;;31.00;31.09;99701.66;4993678;28;808;-57
2023/10/23 13:00:53;;;;;;;;;;;;;;;30.80;31.57;99698.13;4993532;28;815;-58
2023/10/23 13:03:19;;;;;;;;;;;;;;;30.72;31.62;99697.22;4993610;28;852;-57
2023/10/23 13:05:47;;;;;;;;;;;;;;;30.58;31.81;99701.34;4993463;28;819;-57
2023/10/23 13:08:14;;;;;;;;;;;;;;;30.66;31.62;99691.63;4993272;28;866;-57
2023/10/23 13:10:41;;;;;;;;;;;;;;;30.56;31.69;99704.78;4993240;28;855;-58
2023/10/23 13:13:08;;;;;;;;;;;;;;;30.51;31.68;99700.72;4993601;28;873;-57
2023/10/23 13:15:34;;;;;;;;;;;;;;;30.56;31.50;99710.47;4993140;28;1893;-57
2023/10/23 13:18:02;;;;;;;;;;;;;;;30.39;31.68;99701.44;4993078;28;846;-57
2023/10/23 13:20:29;;;;;;;;;;;;;;;30.19;31.99;99702.75;4993079;28;823;-57
2023/10/23 13:22:55;;;;;;;;;;;;;;;30.23;32.16;99701.13;4993053;28;1195;-57
2023/10/23 13:25:22;;;;;;;;;;;;;;;30.35;32.47;99704.59;4993098;28;889;-58
2023/10/23 13:27:48;;;;;;;;;;;;;;;30.30;31.65;99703.41;4993063;28;875;-57
2023/10/23 13:30:14;;;;;;;;;;;;;;;30.10;32.13;99696.16;4992962;28;811;-57
2023/10/23 13:32:41;;;;;;;;;;;;;;;29.89;32.53;99703.72;4992923;28;811;-57